sensor_id;sensor_type;location;lat;lon;timestamp;P1;durP1;ratioP1;P2;durP2;ratioP2
61413;SDS011;47279;52.426;10.488;2022-08-19T00:01:45;3.40;;;3.10;;
61413;SDS011;47279;52.426;10.488;2022-08-19T00:04:12;3.65;;;3.35;;
61413;SDS011;47279;52.426;10.488;2022-08-19T00:06:39;3.42;;;3.22;;
61413;SDS011;47279;52.426;10.488;2022-08-19T00:09:06;3.63;;;3.33;;
61413;SDS011;47279;52.426;10.488;2022-08-19T00:11:33;3.47;;;3.17;;
61413;SDS011;47279;52.426;10.488;2022-08-19T00:14:00;3.80;;;3.50;;
61413;SDS011;47279;52.426;10.488;2022-08-19T00:16:27;3.30;;;3.10;;
61413;SDS011;47279;52.426;10.488;2022-08-19T00:18:53;3.30;;;3.00;;
61413;SDS011;47279;52.426;10.488;2022-08-19T00:21:20;3.80;;;3.50;;
61413;SDS011;47279;52.426;10.488;2022-08-19T00:23:46;3.63;;;3.33;;
61413;SDS011;47279;52.426;10.488;2022-08-19T00:26:12;3.42;;;3.13;;
61413;SDS011;47279;52.426;10.488;2022-08-19T00:28:38;3.67;;;3.38;;
61413;SDS011;47279;52.426;10.488;2022-08-19T00:31:05;3.67;;;3.38;;
61413;SDS011;47279;52.426;10.488;2022-08-19T00:33:31;3.47;;;3.17;;
61413;SDS011;47279;52.426;10.488;2022-08-19T00:35:58;3.55;;;3.25;;
61413;SDS011;47279;52.426;10.488;2022-08-19T00:38:24;3.90;;;3.60;;
61413;SDS011;47279;52.426;10.488;2022-08-19T00:40:50;3.38;;;3.15;;
61413;SDS011;47279;52.426;10.488;2022-08-19T00:43:20;3.47;;;3.28;;
61413;SDS011;47279;52.426;10.488;2022-08-19T00:45:46;3.67;;;3.38;;
61413;SDS011;47279;52.426;10.488;2022-08-19T00:48:13;3.33;;;3.13;;
61413;SDS011;47279;52.426;10.488;2022-08-19T00:50:39;3.50;;;3.30;;
61413;SDS011;47279;52.426;10.488;2022-08-19T00:53:08;4.15;;;3.80;;
61413;SDS011;47279;52.426;10.488;2022-08-19T00:55:34;3.60;;;3.30;;
61413;SDS011;47279;52.426;10.488;2022-08-19T00:58:02;3.80;;;3.50;;
61413;SDS011;47279;52.426;10.488;2022-08-19T01:00:30;3.70;;;3.40;;
61413;SDS011;47279;52.426;10.488;2022-08-19T01:02:56;3.20;;;3.00;;
61413;SDS011;47279;52.426;10.488;2022-08-19T01:05:26;3.25;;;3.00;;
61413;SDS011;47279;52.426;10.488;2022-08-19T01:07:54;3.60;;;3.30;;
61413;SDS011;47279;52.426;10.488;2022-08-19T01:10:21;3.63;;;3.33;;
61413;SDS011;47279;52.426;10.488;2022-08-19T01:12:49;3.28;;;3.05;;
61413;SDS011;47279;52.426;10.488;2022-08-19T01:15:16;3.20;;;3.00;;
61413;SDS011;47279;52.426;10.488;2022-08-19T01:17:43;3.55;;;3.30;;
61413;SDS011;47279;52.426;10.488;2022-08-19T01:20:14;3.40;;;3.20;;
61413;SDS011;47279;52.426;10.488;2022-08-19T01:22:45;3.10;;;2.90;;
61413;SDS011;47279;52.426;10.488;2022-08-19T01:25:12;3.75;;;3.45;;
61413;SDS011;47279;52.426;10.488;2022-08-19T01:27:40;3.30;;;3.10;;
61413;SDS011;47279;52.426;10.488;2022-08-19T01:30:07;3.72;;;3.42;;
61413;SDS011;47279;52.426;10.488;2022-08-19T01:32:33;3.60;;;3.30;;
61413;SDS011;47279;52.426;10.488;2022-08-19T01:35:00;3.72;;;3.42;;
61413;SDS011;47279;52.426;10.488;2022-08-19T01:37:26;3.25;;;2.95;;
61413;SDS011;47279;52.426;10.488;2022-08-19T01:39:52;3.67;;;3.38;;
61413;SDS011;47279;52.426;10.488;2022-08-19T01:42:18;3.40;;;3.10;;
61413;SDS011;47279;52.426;10.488;2022-08-19T01:44:45;3.28;;;3.03;;
61413;SDS011;47279;52.426;10.488;2022-08-19T01:47:10;3.25;;;3.05;;
61413;SDS011;47279;52.426;10.488;2022-08-19T01:49:37;3.30;;;3.10;;
61413;SDS011;47279;52.426;10.488;2022-08-19T01:52:04;3.45;;;3.22;;
61413;SDS011;47279;52.426;10.488;2022-08-19T01:54:30;3.55;;;3.28;;
61413;SDS011;47279;52.426;10.488;2022-08-19T01:57:06;3.33;;;3.13;;
61413;SDS011;47279;52.426;10.488;2022-08-19T01:59:33;3.63;;;3.25;;
61413;SDS011;47279;52.426;10.488;2022-08-19T02:02:01;3.13;;;2.85;;
61413;SDS011;47279;52.426;10.488;2022-08-19T02:04:27;3.30;;;3.08;;
61413;SDS011;47279;52.426;10.488;2022-08-19T02:06:53;4.05;;;3.70;;
61413;SDS011;47279;52.426;10.488;2022-08-19T02:09:19;3.53;;;3.22;;
61413;SDS011;47279;52.426;10.488;2022-08-19T02:11:45;3.78;;;3.33;;
61413;SDS011;47279;52.426;10.488;2022-08-19T02:14:11;3.60;;;3.30;;
61413;SDS011;47279;52.426;10.488;2022-08-19T02:16:38;3.40;;;3.13;;
61413;SDS011;47279;52.426;10.488;2022-08-19T02:19:05;3.40;;;3.20;;
61413;SDS011;47279;52.426;10.488;2022-08-19T02:21:31;3.67;;;3.38;;
61413;SDS011;47279;52.426;10.488;2022-08-19T02:23:57;3.58;;;3.28;;
61413;SDS011;47279;52.426;10.488;2022-08-19T02:26:23;3.40;;;3.20;;
61413;SDS011;47279;52.426;10.488;2022-08-19T02:28:51;3.83;;;3.53;;
61413;SDS011;47279;52.426;10.488;2022-08-19T02:31:18;3.05;;;2.85;;
61413;SDS011;47279;52.426;10.488;2022-08-19T02:33:45;3.05;;;2.85;;
61413;SDS011;47279;52.426;10.488;2022-08-19T02:36:12;3.58;;;3.28;;
61413;SDS011;47279;52.426;10.488;2022-08-19T02:38:38;3.58;;;3.28;;
61413;SDS011;47279;52.426;10.488;2022-08-19T02:41:06;3.05;;;2.85;;
61413;SDS011;47279;52.426;10.488;2022-08-19T02:43:33;2.95;;;2.75;;
61413;SDS011;47279;52.426;10.488;2022-08-19T02:48:29;3.75;;;3.45;;
61413;SDS011;47279;52.426;10.488;2022-08-19T02:50:57;3.15;;;2.95;;
61413;SDS011;47279;52.426;10.488;2022-08-19T02:53:25;3.30;;;3.00;;
61413;SDS011;47279;52.426;10.488;2022-08-19T02:55:53;3.28;;;2.97;;
61413;SDS011;47279;52.426;10.488;2022-08-19T02:58:19;3.38;;;3.17;;
61413;SDS011;47279;52.426;10.488;2022-08-19T03:00:48;3.45;;;3.15;;
61413;SDS011;47279;52.426;10.488;2022-08-19T03:03:14;3.38;;;3.08;;
61413;SDS011;47279;52.426;10.488;2022-08-19T03:05:41;3.50;;;3.22;;
61413;SDS011;47279;52.426;10.488;2022-08-19T03:08:07;3.40;;;3.10;;
61413;SDS011;47279;52.426;10.488;2022-08-19T03:10:41;3.60;;;3.30;;
61413;SDS011;47279;52.426;10.488;2022-08-19T03:13:08;3.47;;;3.17;;
61413;SDS011;47279;52.426;10.488;2022-08-19T03:15:35;3.25;;;3.03;;
61413;SDS011;47279;52.426;10.488;2022-08-19T03:18:04;3.10;;;2.90;;
61413;SDS011;47279;52.426;10.488;2022-08-19T03:20:30;3.47;;;3.17;;
61413;SDS011;47279;52.426;10.488;2022-08-19T03:22:56;3.90;;;3.60;;
61413;SDS011;47279;52.426;10.488;2022-08-19T03:25:22;3.17;;;2.97;;
61413;SDS011;47279;52.426;10.488;2022-08-19T03:27:48;3.00;;;2.80;;
61413;SDS011;47279;52.426;10.488;2022-08-19T03:30:14;3.67;;;3.38;;
61413;SDS011;47279;52.426;10.488;2022-08-19T03:32:40;3.33;;;3.03;;
61413;SDS011;47279;52.426;10.488;2022-08-19T03:35:06;3.28;;;3.08;;
61413;SDS011;47279;52.426;10.488;2022-08-19T03:37:32;3.45;;;3.15;;
61413;SDS011;47279;52.426;10.488;2022-08-19T03:39:58;3.20;;;2.90;;
61413;SDS011;47279;52.426;10.488;2022-08-19T03:42:24;3.40;;;3.10;;
61413;SDS011;47279;52.426;10.488;2022-08-19T03:44:51;3.08;;;2.88;;
61413;SDS011;47279;52.426;10.488;2022-08-19T03:47:17;2.92;;;2.72;;
61413;SDS011;47279;52.426;10.488;2022-08-19T03:49:44;3.20;;;3.00;;
61413;SDS011;47279;52.426;10.488;2022-08-19T03:52:10;3.40;;;3.10;;
61413;SDS011;47279;52.426;10.488;2022-08-19T03:54:36;3.00;;;2.80;;
61413;SDS011;47279;52.426;10.488;2022-08-19T03:57:03;2.92;;;2.72;;
61413;SDS011;47279;52.426;10.488;2022-08-19T03:59:30;3.00;;;2.80;;
61413;SDS011;47279;52.426;10.488;2022-08-19T04:01:57;3.10;;;2.90;;
61413;SDS011;47279;52.426;10.488;2022-08-19T04:04:24;3.45;;;3.15;;
61413;SDS011;47279;52.426;10.488;2022-08-19T04:06:50;3.10;;;2.90;;
61413;SDS011;47279;52.426;10.488;2022-08-19T04:09:17;2.80;;;2.60;;
61413;SDS011;47279;52.426;10.488;2022-08-19T04:11:45;2.97;;;2.75;;
61413;SDS011;47279;52.426;10.488;2022-08-19T04:14:12;3.05;;;2.80;;
61413;SDS011;47279;52.426;10.488;2022-08-19T04:16:38;3.28;;;2.97;;
61413;SDS011;47279;52.426;10.488;2022-08-19T04:19:05;3.35;;;3.05;;
61413;SDS011;47279;52.426;10.488;2022-08-19T04:21:31;3.17;;;2.97;;
61413;SDS011;47279;52.426;10.488;2022-08-19T04:23:58;3.00;;;2.80;;
61413;SDS011;47279;52.426;10.488;2022-08-19T04:26:25;3.03;;;2.83;;
61413;SDS011;47279;52.426;10.488;2022-08-19T04:28:52;3.15;;;2.95;;
61413;SDS011;47279;52.426;10.488;2022-08-19T04:31:20;3.03;;;2.83;;
61413;SDS011;47279;52.426;10.488;2022-08-19T04:33:46;3.17;;;2.90;;
61413;SDS011;47279;52.426;10.488;2022-08-19T04:36:16;2.95;;;2.75;;
61413;SDS011;47279;52.426;10.488;2022-08-19T04:38:45;3.40;;;3.10;;
61413;SDS011;47279;52.426;10.488;2022-08-19T04:41:11;3.10;;;2.90;;
61413;SDS011;47279;52.426;10.488;2022-08-19T04:43:56;2.80;;;2.60;;
61413;SDS011;47279;52.426;10.488;2022-08-19T04:46:22;2.85;;;2.65;;
61413;SDS011;47279;52.426;10.488;2022-08-19T04:48:47;2.88;;;2.67;;
61413;SDS011;47279;52.426;10.488;2022-08-19T04:51:14;3.40;;;3.13;;
61413;SDS011;47279;52.426;10.488;2022-08-19T04:53:40;3.20;;;2.90;;
61413;SDS011;47279;52.426;10.488;2022-08-19T04:56:11;3.20;;;2.95;;
61413;SDS011;47279;52.426;10.488;2022-08-19T04:58:37;3.30;;;3.10;;
61413;SDS011;47279;52.426;10.488;2022-08-19T05:01:04;2.90;;;2.70;;
61413;SDS011;47279;52.426;10.488;2022-08-19T05:03:30;3.08;;;2.78;;
61413;SDS011;47279;52.426;10.488;2022-08-19T05:05:58;3.20;;;3.00;;
61413;SDS011;47279;52.426;10.488;2022-08-19T05:08:29;3.35;;;3.15;;
61413;SDS011;47279;52.426;10.488;2022-08-19T05:10:55;2.80;;;2.60;;
61413;SDS011;47279;52.426;10.488;2022-08-19T05:13:22;3.20;;;2.90;;
61413;SDS011;47279;52.426;10.488;2022-08-19T05:15:55;3.28;;;3.00;;
61413;SDS011;47279;52.426;10.488;2022-08-19T05:18:21;3.03;;;2.70;;
61413;SDS011;47279;52.426;10.488;2022-08-19T05:21:09;3.17;;;2.90;;
61413;SDS011;47279;52.426;10.488;2022-08-19T05:23:54;3.20;;;2.90;;
61413;SDS011;47279;52.426;10.488;2022-08-19T05:26:20;3.03;;;2.83;;
61413;SDS011;47279;52.426;10.488;2022-08-19T05:28:46;2.92;;;2.72;;
61413;SDS011;47279;52.426;10.488;2022-08-19T05:31:12;3.15;;;2.95;;
61413;SDS011;47279;52.426;10.488;2022-08-19T05:33:38;3.13;;;2.92;;
61413;SDS011;47279;52.426;10.488;2022-08-19T05:36:05;3.00;;;2.80;;
61413;SDS011;47279;52.426;10.488;2022-08-19T05:38:32;3.22;;;2.92;;
61413;SDS011;47279;52.426;10.488;2022-08-19T05:40:58;3.13;;;2.92;;
61413;SDS011;47279;52.426;10.488;2022-08-19T05:43:24;2.97;;;2.78;;
61413;SDS011;47279;52.426;10.488;2022-08-19T05:45:50;3.05;;;2.85;;
61413;SDS011;47279;52.426;10.488;2022-08-19T05:48:16;3.22;;;2.92;;
61413;SDS011;47279;52.426;10.488;2022-08-19T05:50:45;3.25;;;3.05;;
61413;SDS011;47279;52.426;10.488;2022-08-19T05:53:11;2.92;;;2.72;;
61413;SDS011;47279;52.426;10.488;2022-08-19T05:55:38;3.30;;;3.10;;
61413;SDS011;47279;52.426;10.488;2022-08-19T05:58:04;3.05;;;2.83;;
61413;SDS011;47279;52.426;10.488;2022-08-19T06:00:32;2.97;;;2.70;;
61413;SDS011;47279;52.426;10.488;2022-08-19T06:02:58;3.10;;;2.80;;
61413;SDS011;47279;52.426;10.488;2022-08-19T06:05:28;2.97;;;2.70;;
61413;SDS011;47279;52.426;10.488;2022-08-19T06:07:53;2.90;;;2.70;;
61413;SDS011;47279;52.426;10.488;2022-08-19T06:10:19;3.20;;;3.00;;
61413;SDS011;47279;52.426;10.488;2022-08-19T06:12:46;3.08;;;2.88;;
61413;SDS011;47279;52.426;10.488;2022-08-19T06:15:13;2.92;;;2.72;;
61413;SDS011;47279;52.426;10.488;2022-08-19T06:17:39;3.85;;;3.55;;
61413;SDS011;47279;52.426;10.488;2022-08-19T06:20:07;4.95;;;4.55;;
61413;SDS011;47279;52.426;10.488;2022-08-19T06:22:38;4.97;;;4.57;;
61413;SDS011;47279;52.426;10.488;2022-08-19T06:25:04;5.63;;;5.13;;
61413;SDS011;47279;52.426;10.488;2022-08-19T06:27:30;6.00;;;5.50;;
61413;SDS011;47279;52.426;10.488;2022-08-19T06:29:57;6.05;;;5.55;;
61413;SDS011;47279;52.426;10.488;2022-08-19T06:32:23;6.40;;;5.45;;
61413;SDS011;47279;52.426;10.488;2022-08-19T06:34:49;7.88;;;7.07;;
61413;SDS011;47279;52.426;10.488;2022-08-19T06:37:15;6.32;;;5.72;;
61413;SDS011;47279;52.426;10.488;2022-08-19T06:39:42;9.02;;;6.43;;
61413;SDS011;47279;52.426;10.488;2022-08-19T06:42:08;6.85;;;6.15;;
61413;SDS011;47279;52.426;10.488;2022-08-19T06:44:36;7.03;;;6.32;;
61413;SDS011;47279;52.426;10.488;2022-08-19T06:47:03;11.82;;;6.75;;
61413;SDS011;47279;52.426;10.488;2022-08-19T06:49:30;7.38;;;6.68;;
61413;SDS011;47279;52.426;10.488;2022-08-19T06:51:56;8.38;;;6.75;;
61413;SDS011;47279;52.426;10.488;2022-08-19T06:54:23;7.57;;;6.88;;
61413;SDS011;47279;52.426;10.488;2022-08-19T06:56:49;8.07;;;7.28;;
61413;SDS011;47279;52.426;10.488;2022-08-19T06:59:18;7.03;;;6.32;;
61413;SDS011;47279;52.426;10.488;2022-08-19T07:01:46;8.03;;;6.87;;
61413;SDS011;47279;52.426;10.488;2022-08-19T07:04:13;8.32;;;6.47;;
61413;SDS011;47279;52.426;10.488;2022-08-19T07:06:40;7.63;;;6.90;;
61413;SDS011;47279;52.426;10.488;2022-08-19T07:09:07;8.27;;;6.55;;
61413;SDS011;47279;52.426;10.488;2022-08-19T07:11:33;7.30;;;6.60;;
61413;SDS011;47279;52.426;10.488;2022-08-19T07:14:00;6.80;;;6.05;;
61413;SDS011;47279;52.426;10.488;2022-08-19T07:16:26;7.68;;;6.90;;
61413;SDS011;47279;52.426;10.488;2022-08-19T07:18:52;6.85;;;6.25;;
61413;SDS011;47279;52.426;10.488;2022-08-19T07:21:20;7.95;;;6.45;;
61413;SDS011;47279;52.426;10.488;2022-08-19T07:23:46;7.47;;;6.68;;
61413;SDS011;47279;52.426;10.488;2022-08-19T07:26:18;7.53;;;6.93;;
61413;SDS011;47279;52.426;10.488;2022-08-19T07:28:44;8.05;;;6.70;;
61413;SDS011;47279;52.426;10.488;2022-08-19T07:31:11;7.18;;;6.50;;
61413;SDS011;47279;52.426;10.488;2022-08-19T07:33:38;7.03;;;6.32;;
61413;SDS011;47279;52.426;10.488;2022-08-19T07:36:04;6.55;;;5.93;;
61413;SDS011;47279;52.426;10.488;2022-08-19T07:38:31;8.93;;;6.45;;
61413;SDS011;47279;52.426;10.488;2022-08-19T07:40:57;6.68;;;6.05;;
61413;SDS011;47279;52.426;10.488;2022-08-19T07:43:23;7.03;;;6.43;;
61413;SDS011;47279;52.426;10.488;2022-08-19T07:45:51;6.50;;;5.90;;
61413;SDS011;47279;52.426;10.488;2022-08-19T07:48:21;7.63;;;6.15;;
61413;SDS011;47279;52.426;10.488;2022-08-19T07:50:49;7.75;;;6.47;;
61413;SDS011;47279;52.426;10.488;2022-08-19T07:53:15;7.43;;;6.63;;
61413;SDS011;47279;52.426;10.488;2022-08-19T07:55:41;7.30;;;6.60;;
61413;SDS011;47279;52.426;10.488;2022-08-19T07:58:07;6.60;;;6.00;;
61413;SDS011;47279;52.426;10.488;2022-08-19T08:00:33;7.18;;;6.47;;
61413;SDS011;47279;52.426;10.488;2022-08-19T08:03:00;6.78;;;6.18;;
61413;SDS011;47279;52.426;10.488;2022-08-19T08:05:26;7.57;;;6.82;;
61413;SDS011;47279;52.426;10.488;2022-08-19T08:08:12;7.22;;;6.53;;
61413;SDS011;47279;52.426;10.488;2022-08-19T08:10:57;7.15;;;6.45;;
61413;SDS011;47279;52.426;10.488;2022-08-19T08:13:23;6.75;;;5.70;;
61413;SDS011;47279;52.426;10.488;2022-08-19T08:15:49;6.30;;;5.70;;
61413;SDS011;47279;52.426;10.488;2022-08-19T08:18:15;6.28;;;5.68;;
61413;SDS011;47279;52.426;10.488;2022-08-19T08:20:42;6.72;;;6.03;;
61413;SDS011;47279;52.426;10.488;2022-08-19T08:23:08;8.07;;;6.70;;
61413;SDS011;47279;52.426;10.488;2022-08-19T08:25:55;6.68;;;6.03;;
61413;SDS011;47279;52.426;10.488;2022-08-19T08:28:21;6.40;;;5.72;;
61413;SDS011;47279;52.426;10.488;2022-08-19T08:30:48;6.85;;;6.15;;
61413;SDS011;47279;52.426;10.488;2022-08-19T08:33:18;7.07;;;6.38;;
61413;SDS011;47279;52.426;10.488;2022-08-19T08:38:10;6.07;;;5.47;;
61413;SDS011;47279;52.426;10.488;2022-08-19T08:43:11;6.03;;;5.43;;
61413;SDS011;47279;52.426;10.488;2022-08-19T08:45:44;6.22;;;5.57;;
61413;SDS011;47279;52.426;10.488;2022-08-19T08:48:30;6.57;;;5.97;;
61413;SDS011;47279;52.426;10.488;2022-08-19T08:50:58;6.05;;;5.43;;
61413;SDS011;47279;52.426;10.488;2022-08-19T08:53:26;6.15;;;5.55;;
61413;SDS011;47279;52.426;10.488;2022-08-19T08:55:52;6.30;;;5.70;;
61413;SDS011;47279;52.426;10.488;2022-08-19T08:58:24;6.55;;;5.95;;
61413;SDS011;47279;52.426;10.488;2022-08-19T09:00:51;6.80;;;6.10;;
61413;SDS011;47279;52.426;10.488;2022-08-19T09:03:21;6.72;;;5.53;;
61413;SDS011;47279;52.426;10.488;2022-08-19T09:06:07;6.38;;;5.63;;
61413;SDS011;47279;52.426;10.488;2022-08-19T09:11:09;6.40;;;5.75;;
61413;SDS011;47279;52.426;10.488;2022-08-19T09:13:52;6.50;;;5.82;;
61413;SDS011;47279;52.426;10.488;2022-08-19T09:16:23;5.95;;;5.45;;
61413;SDS011;47279;52.426;10.488;2022-08-19T09:18:53;6.97;;;5.83;;
61413;SDS011;47279;52.426;10.488;2022-08-19T09:21:20;7.40;;;5.88;;
61413;SDS011;47279;52.426;10.488;2022-08-19T09:23:47;6.95;;;6.25;;
61413;SDS011;47279;52.426;10.488;2022-08-19T09:26:15;6.75;;;5.53;;
61413;SDS011;47279;52.426;10.488;2022-08-19T09:28:42;6.30;;;5.70;;
61413;SDS011;47279;52.426;10.488;2022-08-19T09:31:12;6.53;;;5.93;;
61413;SDS011;47279;52.426;10.488;2022-08-19T09:36:06;6.25;;;5.75;;
61413;SDS011;47279;52.426;10.488;2022-08-19T09:38:32;6.57;;;5.88;;
61413;SDS011;47279;52.426;10.488;2022-08-19T09:41:02;6.43;;;5.63;;
61413;SDS011;47279;52.426;10.488;2022-08-19T09:43:27;6.40;;;5.80;;
61413;SDS011;47279;52.426;10.488;2022-08-19T09:45:53;6.47;;;5.82;;
61413;SDS011;47279;52.426;10.488;2022-08-19T09:48:19;6.80;;;6.10;;
61413;SDS011;47279;52.426;10.488;2022-08-19T09:50:46;7.40;;;6.68;;
61413;SDS011;47279;52.426;10.488;2022-08-19T09:53:12;6.85;;;6.18;;
61413;SDS011;47279;52.426;10.488;2022-08-19T09:55:41;8.05;;;6.68;;
61413;SDS011;47279;52.426;10.488;2022-08-19T10:00:33;7.82;;;6.18;;
61413;SDS011;47279;52.426;10.488;2022-08-19T10:02:59;8.07;;;7.10;;
61413;SDS011;47279;52.426;10.488;2022-08-19T10:05:25;7.38;;;6.07;;
61413;SDS011;47279;52.426;10.488;2022-08-19T10:08:10;6.82;;;6.13;;
61413;SDS011;47279;52.426;10.488;2022-08-19T10:10:37;7.20;;;6.50;;
61413;SDS011;47279;52.426;10.488;2022-08-19T10:13:03;6.72;;;6.03;;
61413;SDS011;47279;52.426;10.488;2022-08-19T10:15:29;7.82;;;6.88;;
61413;SDS011;47279;52.426;10.488;2022-08-19T10:17:55;6.53;;;5.90;;
61413;SDS011;47279;52.426;10.488;2022-08-19T10:20:21;6.63;;;6.03;;
61413;SDS011;47279;52.426;10.488;2022-08-19T10:22:47;6.82;;;6.22;;
61413;SDS011;47279;52.426;10.488;2022-08-19T10:25:13;6.95;;;6.35;;
61413;SDS011;47279;52.426;10.488;2022-08-19T10:27:41;7.22;;;6.55;;
61413;SDS011;47279;52.426;10.488;2022-08-19T10:30:07;6.93;;;6.13;;
61413;SDS011;47279;52.426;10.488;2022-08-19T10:32:33;7.30;;;6.60;;
61413;SDS011;47279;52.426;10.488;2022-08-19T10:35:00;6.78;;;6.18;;
61413;SDS011;47279;52.426;10.488;2022-08-19T10:37:26;6.45;;;5.80;;
61413;SDS011;47279;52.426;10.488;2022-08-19T10:39:51;6.57;;;5.97;;
61413;SDS011;47279;52.426;10.488;2022-08-19T10:42:17;6.88;;;6.28;;
61413;SDS011;47279;52.426;10.488;2022-08-19T10:44:44;6.88;;;6.03;;
61413;SDS011;47279;52.426;10.488;2022-08-19T10:47:11;6.90;;;6.28;;
61413;SDS011;47279;52.426;10.488;2022-08-19T10:49:37;6.88;;;6.28;;
61413;SDS011;47279;52.426;10.488;2022-08-19T10:52:23;6.95;;;6.28;;
61413;SDS011;47279;52.426;10.488;2022-08-19T10:54:58;7.95;;;7.25;;
61413;SDS011;47279;52.426;10.488;2022-08-19T10:57:43;7.75;;;6.95;;
61413;SDS011;47279;52.426;10.488;2022-08-19T11:00:09;6.55;;;5.95;;
61413;SDS011;47279;52.426;10.488;2022-08-19T11:02:35;7.43;;;6.30;;
61413;SDS011;47279;52.426;10.488;2022-08-19T11:05:01;7.50;;;6.75;;
61413;SDS011;47279;52.426;10.488;2022-08-19T11:07:27;7.18;;;6.47;;
61413;SDS011;47279;52.426;10.488;2022-08-19T11:09:53;8.60;;;7.80;;
61413;SDS011;47279;52.426;10.488;2022-08-19T11:12:19;7.95;;;7.15;;
61413;SDS011;47279;52.426;10.488;2022-08-19T11:14:45;7.90;;;7.20;;
61413;SDS011;47279;52.426;10.488;2022-08-19T11:17:12;7.03;;;6.43;;
61413;SDS011;47279;52.426;10.488;2022-08-19T11:19:38;7.57;;;6.88;;
61413;SDS011;47279;52.426;10.488;2022-08-19T11:22:07;8.23;;;7.43;;
61413;SDS011;47279;52.426;10.488;2022-08-19T11:24:34;7.50;;;6.88;;
61413;SDS011;47279;52.426;10.488;2022-08-19T11:27:01;7.78;;;7.07;;
61413;SDS011;47279;52.426;10.488;2022-08-19T11:29:29;8.00;;;7.20;;
61413;SDS011;47279;52.426;10.488;2022-08-19T11:31:55;7.60;;;6.90;;
61413;SDS011;47279;52.426;10.488;2022-08-19T11:34:22;8.18;;;7.38;;
61413;SDS011;47279;52.426;10.488;2022-08-19T11:36:49;7.45;;;6.75;;
61413;SDS011;47279;52.426;10.488;2022-08-19T11:39:17;8.35;;;7.50;;
61413;SDS011;47279;52.426;10.488;2022-08-19T11:41:43;8.85;;;7.95;;
61413;SDS011;47279;52.426;10.488;2022-08-19T11:44:09;8.05;;;7.32;;
61413;SDS011;47279;52.426;10.488;2022-08-19T11:46:36;7.93;;;7.13;;
61413;SDS011;47279;52.426;10.488;2022-08-19T11:49:03;8.10;;;7.30;;
61413;SDS011;47279;52.426;10.488;2022-08-19T11:51:29;8.18;;;7.47;;
61413;SDS011;47279;52.426;10.488;2022-08-19T11:53:56;8.27;;;7.53;;
61413;SDS011;47279;52.426;10.488;2022-08-19T11:56:24;8.43;;;7.65;;
61413;SDS011;47279;52.426;10.488;2022-08-19T11:58:50;6.93;;;6.22;;
61413;SDS011;47279;52.426;10.488;2022-08-19T12:01:17;8.15;;;7.45;;
61413;SDS011;47279;52.426;10.488;2022-08-19T12:03:44;7.18;;;6.47;;
61413;SDS011;47279;52.426;10.488;2022-08-19T12:06:12;6.95;;;6.35;;
61413;SDS011;47279;52.426;10.488;2022-08-19T12:08:39;7.72;;;6.95;;
61413;SDS011;47279;52.426;10.488;2022-08-19T12:11:05;7.78;;;6.97;;
61413;SDS011;47279;52.426;10.488;2022-08-19T12:13:33;7.88;;;7.15;;
61413;SDS011;47279;52.426;10.488;2022-08-19T12:15:59;7.90;;;7.15;;
61413;SDS011;47279;52.426;10.488;2022-08-19T12:18:25;7.30;;;6.50;;
61413;SDS011;47279;52.426;10.488;2022-08-19T12:20:52;7.22;;;6.63;;
61413;SDS011;47279;52.426;10.488;2022-08-19T12:23:19;7.80;;;7.00;;
61413;SDS011;47279;52.426;10.488;2022-08-19T12:25:46;7.53;;;6.78;;
61413;SDS011;47279;52.426;10.488;2022-08-19T12:28:15;7.45;;;6.75;;
61413;SDS011;47279;52.426;10.488;2022-08-19T12:30:41;7.05;;;6.45;;
61413;SDS011;47279;52.426;10.488;2022-08-19T12:33:07;7.03;;;6.32;;
61413;SDS011;47279;52.426;10.488;2022-08-19T12:35:33;7.45;;;6.75;;
61413;SDS011;47279;52.426;10.488;2022-08-19T12:38:00;7.15;;;6.55;;
61413;SDS011;47279;52.426;10.488;2022-08-19T12:40:27;7.50;;;6.80;;
61413;SDS011;47279;52.426;10.488;2022-08-19T12:42:53;7.38;;;6.70;;
61413;SDS011;47279;52.426;10.488;2022-08-19T12:45:19;8.10;;;7.30;;
61413;SDS011;47279;52.426;10.488;2022-08-19T12:47:46;7.22;;;6.57;;
61413;SDS011;47279;52.426;10.488;2022-08-19T12:50:12;6.57;;;6.05;;
61413;SDS011;47279;52.426;10.488;2022-08-19T12:52:38;6.97;;;6.30;;
61413;SDS011;47279;52.426;10.488;2022-08-19T12:55:07;7.30;;;6.60;;
61413;SDS011;47279;52.426;10.488;2022-08-19T12:57:34;7.75;;;7.05;;
61413;SDS011;47279;52.426;10.488;2022-08-19T13:00:03;7.95;;;7.18;;
61413;SDS011;47279;52.426;10.488;2022-08-19T13:02:32;7.30;;;6.70;;
61413;SDS011;47279;52.426;10.488;2022-08-19T13:04:59;8.13;;;7.43;;
61413;SDS011;47279;52.426;10.488;2022-08-19T13:07:25;7.32;;;6.63;;
61413;SDS011;47279;52.426;10.488;2022-08-19T13:09:51;7.50;;;6.80;;
61413;SDS011;47279;52.426;10.488;2022-08-19T13:12:18;8.07;;;7.38;;
61413;SDS011;47279;52.426;10.488;2022-08-19T13:14:45;7.60;;;6.90;;
61413;SDS011;47279;52.426;10.488;2022-08-19T13:17:14;7.10;;;6.50;;
61413;SDS011;47279;52.426;10.488;2022-08-19T13:19:40;7.65;;;6.97;;
61413;SDS011;47279;52.426;10.488;2022-08-19T13:22:06;7.90;;;7.20;;
61413;SDS011;47279;52.426;10.488;2022-08-19T13:24:32;6.97;;;6.28;;
61413;SDS011;47279;52.426;10.488;2022-08-19T13:26:59;7.68;;;6.97;;
61413;SDS011;47279;52.426;10.488;2022-08-19T13:29:25;7.80;;;7.10;;
61413;SDS011;47279;52.426;10.488;2022-08-19T13:32:09;7.55;;;6.88;;
61413;SDS011;47279;52.426;10.488;2022-08-19T13:34:54;7.72;;;7.03;;
61413;SDS011;47279;52.426;10.488;2022-08-19T13:37:21;8.60;;;7.18;;
61413;SDS011;47279;52.426;10.488;2022-08-19T13:40:06;8.77;;;7.93;;
61413;SDS011;47279;52.426;10.488;2022-08-19T13:42:32;8.02;;;7.32;;
61413;SDS011;47279;52.426;10.488;2022-08-19T13:44:58;7.53;;;6.80;;
61413;SDS011;47279;52.426;10.488;2022-08-19T13:47:24;7.78;;;7.03;;
61413;SDS011;47279;52.426;10.488;2022-08-19T13:49:50;8.23;;;7.43;;
61413;SDS011;47279;52.426;10.488;2022-08-19T13:52:16;7.50;;;6.82;;
61413;SDS011;47279;52.426;10.488;2022-08-19T13:54:42;7.93;;;7.22;;
61413;SDS011;47279;52.426;10.488;2022-08-19T13:57:08;8.55;;;7.70;;
61413;SDS011;47279;52.426;10.488;2022-08-19T13:59:34;7.85;;;7.15;;
61413;SDS011;47279;52.426;10.488;2022-08-19T14:02:01;8.13;;;7.43;;
61413;SDS011;47279;52.426;10.488;2022-08-19T14:04:27;8.20;;;7.50;;
61413;SDS011;47279;52.426;10.488;2022-08-19T14:06:53;7.03;;;6.43;;
61413;SDS011;47279;52.426;10.488;2022-08-19T14:09:19;8.40;;;7.70;;
61413;SDS011;47279;52.426;10.488;2022-08-19T14:11:45;7.88;;;7.18;;
61413;SDS011;47279;52.426;10.488;2022-08-19T14:14:11;8.27;;;7.47;;
61413;SDS011;47279;52.426;10.488;2022-08-19T14:16:37;7.25;;;6.55;;
61413;SDS011;47279;52.426;10.488;2022-08-19T14:19:03;8.25;;;7.55;;
61413;SDS011;47279;52.426;10.488;2022-08-19T14:21:29;7.78;;;6.97;;
61413;SDS011;47279;52.426;10.488;2022-08-19T14:23:55;7.90;;;7.20;;
61413;SDS011;47279;52.426;10.488;2022-08-19T14:26:21;7.43;;;6.80;;
61413;SDS011;47279;52.426;10.488;2022-08-19T14:28:47;8.88;;;8.07;;
61413;SDS011;47279;52.426;10.488;2022-08-19T14:31:14;8.30;;;7.60;;
61413;SDS011;47279;52.426;10.488;2022-08-19T14:33:44;7.38;;;6.68;;
61413;SDS011;47279;52.426;10.488;2022-08-19T14:36:10;8.68;;;7.97;;
61413;SDS011;47279;52.426;10.488;2022-08-19T14:38:36;7.85;;;7.15;;
61413;SDS011;47279;52.426;10.488;2022-08-19T14:41:06;8.90;;;8.20;;
61413;SDS011;47279;52.426;10.488;2022-08-19T14:43:33;8.23;;;7.53;;
61413;SDS011;47279;52.426;10.488;2022-08-19T14:45:59;9.05;;;8.25;;
61413;SDS011;47279;52.426;10.488;2022-08-19T14:48:25;8.48;;;7.68;;
61413;SDS011;47279;52.426;10.488;2022-08-19T14:50:51;8.52;;;7.82;;